sensor_id;sensor_type;location;lat;lon;timestamp;temperature;humidity
8633;DHT22;4354;49.832;10.746;2023-06-14T00:01:15;12.10;99.90
8633;DHT22;4354;49.832;10.746;2023-06-14T00:03:43;12.10;99.90
8633;DHT22;4354;49.832;10.746;2023-06-14T00:06:10;12.10;99.90
8633;DHT22;4354;49.832;10.746;2023-06-14T00:08:38;12.00;99.90
8633;DHT22;4354;49.832;10.746;2023-06-14T00:11:05;11.90;1.00
8633;DHT22;4354;49.832;10.746;2023-06-14T00:13:31;11.80;1.00
8633;DHT22;4354;49.832;10.746;2023-06-14T00:15:58;11.80;99.90
8633;DHT22;4354;49.832;10.746;2023-06-14T00:18:25;11.80;1.00
8633;DHT22;4354;49.832;10.746;2023-06-14T00:20:56;11.80;1.00
8633;DHT22;4354;49.832;10.746;2023-06-14T00:23:23;11.80;99.90
8633;DHT22;4354;49.832;10.746;2023-06-14T00:25:49;11.80;1.00
8633;DHT22;4354;49.832;10.746;2023-06-14T00:28:16;11.90;1.00
8633;DHT22;4354;49.832;10.746;2023-06-14T00:30:43;11.90;1.00
8633;DHT22;4354;49.832;10.746;2023-06-14T00:33:13;11.80;1.00
8633;DHT22;4354;49.832;10.746;2023-06-14T00:35:40;11.80;1.00
8633;DHT22;4354;49.832;10.746;2023-06-14T00:38:07;11.80;1.00
8633;DHT22;4354;49.832;10.746;2023-06-14T00:40:34;11.70;1.00
8633;DHT22;4354;49.832;10.746;2023-06-14T00:43:01;11.60;99.90
8633;DHT22;4354;49.832;10.746;2023-06-14T00:45:28;11.60;1.00
8633;DHT22;4354;49.832;10.746;2023-06-14T00:47:55;11.60;99.90
8633;DHT22;4354;49.832;10.746;2023-06-14T00:50:23;11.60;99.90
8633;DHT22;4354;49.832;10.746;2023-06-14T00:52:50;11.50;1.00
8633;DHT22;4354;49.832;10.746;2023-06-14T00:55:17;11.40;1.00
8633;DHT22;4354;49.832;10.746;2023-06-14T00:57:44;11.40;1.00
8633;DHT22;4354;49.832;10.746;2023-06-14T01:00:12;11.40;1.00
8633;DHT22;4354;49.832;10.746;2023-06-14T01:02:40;11.40;1.00
8633;DHT22;4354;49.832;10.746;2023-06-14T01:05:08;11.30;99.90
8633;DHT22;4354;49.832;10.746;2023-06-14T01:13:23;11.30;99.90
8633;DHT22;4354;49.832;10.746;2023-06-14T01:15:53;11.30;99.90
8633;DHT22;4354;49.832;10.746;2023-06-14T01:18:22;11.30;1.00
8633;DHT22;4354;49.832;10.746;2023-06-14T01:20:50;11.10;99.90
8633;DHT22;4354;49.832;10.746;2023-06-14T01:23:19;11.10;1.00
8633;DHT22;4354;49.832;10.746;2023-06-14T01:25:46;11.10;1.00
8633;DHT22;4354;49.832;10.746;2023-06-14T01:28:15;11.00;99.90
8633;DHT22;4354;49.832;10.746;2023-06-14T01:30:45;11.00;99.90
8633;DHT22;4354;49.832;10.746;2023-06-14T01:33:14;11.10;99.90
8633;DHT22;4354;49.832;10.746;2023-06-14T01:35:43;11.00;99.90
8633;DHT22;4354;49.832;10.746;2023-06-14T01:38:10;10.90;99.90
8633;DHT22;4354;49.832;10.746;2023-06-14T01:40:39;10.90;99.90
8633;DHT22;4354;49.832;10.746;2023-06-14T01:43:06;10.90;99.90
8633;DHT22;4354;49.832;10.746;2023-06-14T01:45:34;10.90;99.90
8633;DHT22;4354;49.832;10.746;2023-06-14T01:48:02;10.70;99.90
8633;DHT22;4354;49.832;10.746;2023-06-14T01:50:30;10.50;99.90
8633;DHT22;4354;49.832;10.746;2023-06-14T01:52:58;10.30;99.90
8633;DHT22;4354;49.832;10.746;2023-06-14T01:55:25;10.30;99.90
8633;DHT22;4354;49.832;10.746;2023-06-14T01:57:52;10.20;99.90
8633;DHT22;4354;49.832;10.746;2023-06-14T02:00:20;10.10;99.90
8633;DHT22;4354;49.832;10.746;2023-06-14T02:02:48;10.00;99.90
8633;DHT22;4354;49.832;10.746;2023-06-14T02:05:15;10.10;99.90
8633;DHT22;4354;49.832;10.746;2023-06-14T02:07:45;10.10;1.00
8633;DHT22;4354;49.832;10.746;2023-06-14T02:10:13;10.10;63.30
8633;DHT22;4354;49.832;10.746;2023-06-14T02:12:41;10.20;1.00
8633;DHT22;4354;49.832;10.746;2023-06-14T02:15:08;10.30;1.00
8633;DHT22;4354;49.832;10.746;2023-06-14T02:17:35;10.30;1.00
8633;DHT22;4354;49.832;10.746;2023-06-14T02:20:02;10.40;1.00
8633;DHT22;4354;49.832;10.746;2023-06-14T02:22:29;10.30;99.90
8633;DHT22;4354;49.832;10.746;2023-06-14T02:24:56;10.30;99.90
8633;DHT22;4354;49.832;10.746;2023-06-14T02:27:28;10.30;1.00
8633;DHT22;4354;49.832;10.746;2023-06-14T02:29:55;10.20;99.90
8633;DHT22;4354;49.832;10.746;2023-06-14T02:32:21;10.10;99.90
8633;DHT22;4354;49.832;10.746;2023-06-14T02:34:48;10.00;99.90
8633;DHT22;4354;49.832;10.746;2023-06-14T02:37:16;10.50;88.80
8633;DHT22;4354;49.832;10.746;2023-06-14T02:39:43;9.90;1.00
8633;DHT22;4354;49.832;10.746;2023-06-14T02:42:10;9.90;99.90
8633;DHT22;4354;49.832;10.746;2023-06-14T02:44:37;9.90;1.00
8633;DHT22;4354;49.832;10.746;2023-06-14T02:47:04;9.90;99.90
8633;DHT22;4354;49.832;10.746;2023-06-14T02:49:31;9.90;99.90
8633;DHT22;4354;49.832;10.746;2023-06-14T02:51:58;9.90;1.00
8633;DHT22;4354;49.832;10.746;2023-06-14T02:54:25;9.80;1.00
8633;DHT22;4354;49.832;10.746;2023-06-14T02:56:52;9.90;1.00
8633;DHT22;4354;49.832;10.746;2023-06-14T02:59:19;9.90;1.00
8633;DHT22;4354;49.832;10.746;2023-06-14T03:01:48;9.90;1.00
8633;DHT22;4354;49.832;10.746;2023-06-14T03:04:15;9.70;1.00
8633;DHT22;4354;49.832;10.746;2023-06-14T03:06:42;9.70;1.00
8633;DHT22;4354;49.832;10.746;2023-06-14T03:09:11;9.60;1.00
8633;DHT22;4354;49.832;10.746;2023-06-14T03:11:38;9.70;1.00
8633;DHT22;4354;49.832;10.746;2023-06-14T03:14:05;9.60;1.00
8633;DHT22;4354;49.832;10.746;2023-06-14T03:16:34;9.50;99.90
8633;DHT22;4354;49.832;10.746;2023-06-14T03:19:00;9.50;99.90
8633;DHT22;4354;49.832;10.746;2023-06-14T03:21:27;9.60;1.00
8633;DHT22;4354;49.832;10.746;2023-06-14T03:23:55;9.60;1.00
8633;DHT22;4354;49.832;10.746;2023-06-14T03:26:22;9.60;99.90
8633;DHT22;4354;49.832;10.746;2023-06-14T03:28:48;9.60;1.00
8633;DHT22;4354;49.832;10.746;2023-06-14T03:31:16;9.70;29.80
8633;DHT22;4354;49.832;10.746;2023-06-14T03:33:43;9.60;1.00
8633;DHT22;4354;49.832;10.746;2023-06-14T03:36:10;9.50;99.90
8633;DHT22;4354;49.832;10.746;2023-06-14T03:38:37;9.40;1.00
8633;DHT22;4354;49.832;10.746;2023-06-14T03:41:04;9.30;99.90
8633;DHT22;4354;49.832;10.746;2023-06-14T03:43:31;9.20;1.00
8633;DHT22;4354;49.832;10.746;2023-06-14T03:45:57;9.20;1.00
8633;DHT22;4354;49.832;10.746;2023-06-14T03:48:24;9.30;1.00
8633;DHT22;4354;49.832;10.746;2023-06-14T03:50:51;9.40;99.90
8633;DHT22;4354;49.832;10.746;2023-06-14T03:53:18;9.50;1.00
8633;DHT22;4354;49.832;10.746;2023-06-14T03:55:47;9.60;1.00
8633;DHT22;4354;49.832;10.746;2023-06-14T03:58:18;10.10;99.90
8633;DHT22;4354;49.832;10.746;2023-06-14T04:00:45;9.60;1.00
8633;DHT22;4354;49.832;10.746;2023-06-14T04:03:12;9.50;99.90
8633;DHT22;4354;49.832;10.746;2023-06-14T04:05:40;9.50;99.90
8633;DHT22;4354;49.832;10.746;2023-06-14T04:08:09;9.50;1.00
8633;DHT22;4354;49.832;10.746;2023-06-14T04:10:36;9.50;1.00
8633;DHT22;4354;49.832;10.746;2023-06-14T04:13:03;9.50;1.00
8633;DHT22;4354;49.832;10.746;2023-06-14T04:15:31;9.60;1.00
8633;DHT22;4354;49.832;10.746;2023-06-14T04:17:58;9.70;1.00
8633;DHT22;4354;49.832;10.746;2023-06-14T04:20:25;9.90;1.00
8633;DHT22;4354;49.832;10.746;2023-06-14T04:22:51;10.00;1.00
8633;DHT22;4354;49.832;10.746;2023-06-14T04:25:19;10.10;1.00
8633;DHT22;4354;49.832;10.746;2023-06-14T04:27:50;10.20;1.00
8633;DHT22;4354;49.832;10.746;2023-06-14T04:30:17;10.30;1.00
8633;DHT22;4354;49.832;10.746;2023-06-14T04:32:43;10.40;99.90
8633;DHT22;4354;49.832;10.746;2023-06-14T04:35:12;10.50;1.00
8633;DHT22;4354;49.832;10.746;2023-06-14T04:37:39;10.60;81.00
8633;DHT22;4354;49.832;10.746;2023-06-14T04:40:08;10.60;99.90
8633;DHT22;4354;49.832;10.746;2023-06-14T04:42:38;10.60;99.90
8633;DHT22;4354;49.832;10.746;2023-06-14T04:45:07;10.70;99.90
8633;DHT22;4354;49.832;10.746;2023-06-14T04:47:35;10.80;1.00
8633;DHT22;4354;49.832;10.746;2023-06-14T04:50:04;10.90;1.00
8633;DHT22;4354;49.832;10.746;2023-06-14T04:52:31;11.00;99.90
8633;DHT22;4354;49.832;10.746;2023-06-14T04:54:58;11.10;1.00
8633;DHT22;4354;49.832;10.746;2023-06-14T04:57:25;11.10;1.00
8633;DHT22;4354;49.832;10.746;2023-06-14T04:59:52;11.20;99.90
8633;DHT22;4354;49.832;10.746;2023-06-14T05:02:25;11.30;1.00
8633;DHT22;4354;49.832;10.746;2023-06-14T05:04:53;11.50;1.00
8633;DHT22;4354;49.832;10.746;2023-06-14T05:07:20;11.60;99.90
8633;DHT22;4354;49.832;10.746;2023-06-14T05:09:46;11.80;99.90
8633;DHT22;4354;49.832;10.746;2023-06-14T05:12:13;11.80;1.00
8633;DHT22;4354;49.832;10.746;2023-06-14T05:14:45;12.00;99.90
8633;DHT22;4354;49.832;10.746;2023-06-14T05:17:12;12.30;82.20
8633;DHT22;4354;49.832;10.746;2023-06-14T05:19:38;12.40;1.00
8633;DHT22;4354;49.832;10.746;2023-06-14T05:22:05;12.60;1.00
8633;DHT22;4354;49.832;10.746;2023-06-14T05:24:32;12.80;99.90
8633;DHT22;4354;49.832;10.746;2023-06-14T05:26:59;13.00;99.90
8633;DHT22;4354;49.832;10.746;2023-06-14T05:29:26;13.30;1.00
8633;DHT22;4354;49.832;10.746;2023-06-14T05:31:56;13.50;1.00
8633;DHT22;4354;49.832;10.746;2023-06-14T05:34:23;13.70;99.90
8633;DHT22;4354;49.832;10.746;2023-06-14T05:36:50;14.00;1.00
8633;DHT22;4354;49.832;10.746;2023-06-14T05:39:17;14.10;1.00
8633;DHT22;4354;49.832;10.746;2023-06-14T05:41:43;14.50;99.90
8633;DHT22;4354;49.832;10.746;2023-06-14T05:44:10;14.80;94.00
8633;DHT22;4354;49.832;10.746;2023-06-14T05:46:37;15.10;1.00
8633;DHT22;4354;49.832;10.746;2023-06-14T05:49:06;15.30;1.00
8633;DHT22;4354;49.832;10.746;2023-06-14T05:51:34;15.60;1.00
8633;DHT22;4354;49.832;10.746;2023-06-14T05:54:01;16.00;1.00
8633;DHT22;4354;49.832;10.746;2023-06-14T05:56:28;16.30;1.00
8633;DHT22;4354;49.832;10.746;2023-06-14T05:58:55;16.60;1.00
8633;DHT22;4354;49.832;10.746;2023-06-14T06:01:22;17.00;1.00
8633;DHT22;4354;49.832;10.746;2023-06-14T06:03:49;17.50;99.90
8633;DHT22;4354;49.832;10.746;2023-06-14T06:06:15;18.10;99.90
8633;DHT22;4354;49.832;10.746;2023-06-14T06:08:43;18.80;99.90
8633;DHT22;4354;49.832;10.746;2023-06-14T06:11:10;19.20;99.90
8633;DHT22;4354;49.832;10.746;2023-06-14T06:13:37;20.00;99.90
8633;DHT22;4354;49.832;10.746;2023-06-14T06:16:05;21.10;99.90
8633;DHT22;4354;49.832;10.746;2023-06-14T06:18:32;22.20;53.90
8633;DHT22;4354;49.832;10.746;2023-06-14T06:20:59;23.30;32.80
8633;DHT22;4354;49.832;10.746;2023-06-14T06:23:26;24.20;1.00
8633;DHT22;4354;49.832;10.746;2023-06-14T06:25:52;24.80;1.00
8633;DHT22;4354;49.832;10.746;2023-06-14T06:28:20;25.20;1.00
8633;DHT22;4354;49.832;10.746;2023-06-14T06:30:46;25.50;1.00
8633;DHT22;4354;49.832;10.746;2023-06-14T06:33:13;25.90;1.00
8633;DHT22;4354;49.832;10.746;2023-06-14T06:35:40;26.40;1.00
8633;DHT22;4354;49.832;10.746;2023-06-14T06:38:07;26.60;1.00
8633;DHT22;4354;49.832;10.746;2023-06-14T06:40:36;26.30;1.00
8633;DHT22;4354;49.832;10.746;2023-06-14T06:43:03;27.10;1.00
8633;DHT22;4354;49.832;10.746;2023-06-14T06:45:30;27.70;1.00
8633;DHT22;4354;49.832;10.746;2023-06-14T06:47:57;28.40;1.00
8633;DHT22;4354;49.832;10.746;2023-06-14T06:50:24;28.50;1.00
8633;DHT22;4354;49.832;10.746;2023-06-14T06:52:51;28.60;1.00
8633;DHT22;4354;49.832;10.746;2023-06-14T06:55:19;28.70;1.00
8633;DHT22;4354;49.832;10.746;2023-06-14T06:57:46;29.00;1.00
8633;DHT22;4354;49.832;10.746;2023-06-14T07:00:13;29.10;1.00
8633;DHT22;4354;49.832;10.746;2023-06-14T07:02:41;28.90;1.00
8633;DHT22;4354;49.832;10.746;2023-06-14T07:05:08;29.50;1.00
8633;DHT22;4354;49.832;10.746;2023-06-14T07:07:35;29.70;1.00
8633;DHT22;4354;49.832;10.746;2023-06-14T07:10:03;30.40;1.00
8633;DHT22;4354;49.832;10.746;2023-06-14T07:12:32;30.60;1.00
8633;DHT22;4354;49.832;10.746;2023-06-14T07:15:00;31.00;1.00
8633;DHT22;4354;49.832;10.746;2023-06-14T07:17:27;31.20;1.00
8633;DHT22;4354;49.832;10.746;2023-06-14T07:19:54;30.80;1.00
8633;DHT22;4354;49.832;10.746;2023-06-14T07:22:21;31.10;1.00
8633;DHT22;4354;49.832;10.746;2023-06-14T07:24:47;31.00;1.00
8633;DHT22;4354;49.832;10.746;2023-06-14T07:27:14;31.30;1.00
8633;DHT22;4354;49.832;10.746;2023-06-14T07:29:41;31.70;1.00
8633;DHT22;4354;49.832;10.746;2023-06-14T07:32:08;32.50;1.00
8633;DHT22;4354;49.832;10.746;2023-06-14T07:34:35;32.40;1.00
8633;DHT22;4354;49.832;10.746;2023-06-14T07:37:02;32.50;1.00
8633;DHT22;4354;49.832;10.746;2023-06-14T07:39:29;32.60;1.00
8633;DHT22;4354;49.832;10.746;2023-06-14T07:41:56;32.70;1.00
8633;DHT22;4354;49.832;10.746;2023-06-14T07:44:23;32.50;1.00
8633;DHT22;4354;49.832;10.746;2023-06-14T07:46:50;32.40;1.00
8633;DHT22;4354;49.832;10.746;2023-06-14T07:49:17;33.20;1.00
8633;DHT22;4354;49.832;10.746;2023-06-14T07:51:44;33.20;1.00
8633;DHT22;4354;49.832;10.746;2023-06-14T07:54:11;34.20;1.00
8633;DHT22;4354;49.832;10.746;2023-06-14T07:56:39;34.10;1.00
8633;DHT22;4354;49.832;10.746;2023-06-14T07:59:09;33.90;1.00
8633;DHT22;4354;49.832;10.746;2023-06-14T08:01:36;34.20;1.00
8633;DHT22;4354;49.832;10.746;2023-06-14T08:04:03;34.60;1.00
8633;DHT22;4354;49.832;10.746;2023-06-14T08:06:30;35.00;1.00
8633;DHT22;4354;49.832;10.746;2023-06-14T08:08:57;35.10;1.00
8633;DHT22;4354;49.832;10.746;2023-06-14T08:11:27;35.20;1.00
8633;DHT22;4354;49.832;10.746;2023-06-14T08:13:54;35.20;1.00
8633;DHT22;4354;49.832;10.746;2023-06-14T08:16:21;35.20;1.00
8633;DHT22;4354;49.832;10.746;2023-06-14T08:18:48;35.60;1.00
8633;DHT22;4354;49.832;10.746;2023-06-14T08:21:15;35.40;1.00
8633;DHT22;4354;49.832;10.746;2023-06-14T08:23:42;35.20;1.00
8633;DHT22;4354;49.832;10.746;2023-06-14T08:26:11;35.50;1.00
8633;DHT22;4354;49.832;10.746;2023-06-14T08:28:38;36.30;1.00
8633;DHT22;4354;49.832;10.746;2023-06-14T08:31:05;36.50;1.00
8633;DHT22;4354;49.832;10.746;2023-06-14T08:33:32;36.60;1.00
8633;DHT22;4354;49.832;10.746;2023-06-14T08:36:02;36.40;1.00
8633;DHT22;4354;49.832;10.746;2023-06-14T08:38:29;36.60;1.00
8633;DHT22;4354;49.832;10.746;2023-06-14T08:40:57;36.10;1.00
8633;DHT22;4354;49.832;10.746;2023-06-14T08:43:24;35.10;1.00
8633;DHT22;4354;49.832;10.746;2023-06-14T08:46:00;35.70;1.00
8633;DHT22;4354;49.832;10.746;2023-06-14T08:48:29;36.00;1.00
8633;DHT22;4354;49.832;10.746;2023-06-14T08:51:01;35.50;1.00
8633;DHT22;4354;49.832;10.746;2023-06-14T08:53:31;35.70;1.00
8633;DHT22;4354;49.832;10.746;2023-06-14T08:56:04;35.50;1.00
8633;DHT22;4354;49.832;10.746;2023-06-14T08:58:32;35.90;1.00
8633;DHT22;4354;49.832;10.746;2023-06-14T09:01:03;36.10;1.00
8633;DHT22;4354;49.832;10.746;2023-06-14T09:03:31;36.70;1.00
8633;DHT22;4354;49.832;10.746;2023-06-14T09:06:00;37.00;1.00
8633;DHT22;4354;49.832;10.746;2023-06-14T09:08:28;35.70;1.00
8633;DHT22;4354;49.832;10.746;2023-06-14T09:10:57;34.10;1.00
8633;DHT22;4354;49.832;10.746;2023-06-14T09:13:26;34.00;1.00
8633;DHT22;4354;49.832;10.746;2023-06-14T09:15:57;34.60;1.00
8633;DHT22;4354;49.832;10.746;2023-06-14T09:18:35;35.50;1.00
8633;DHT22;4354;49.832;10.746;2023-06-14T09:21:01;35.60;1.00
8633;DHT22;4354;49.832;10.746;2023-06-14T09:23:28;34.80;1.00
8633;DHT22;4354;49.832;10.746;2023-06-14T09:25:56;35.10;1.00
8633;DHT22;4354;49.832;10.746;2023-06-14T09:28:27;35.40;1.00
8633;DHT22;4354;49.832;10.746;2023-06-14T09:30:54;36.30;1.00
8633;DHT22;4354;49.832;10.746;2023-06-14T09:33:21;37.50;1.00
8633;DHT22;4354;49.832;10.746;2023-06-14T09:35:51;37.20;1.00
8633;DHT22;4354;49.832;10.746;2023-06-14T09:38:19;36.30;1.00
8633;DHT22;4354;49.832;10.746;2023-06-14T09:40:46;36.70;1.00
8633;DHT22;4354;49.832;10.746;2023-06-14T09:43:12;37.20;1.00
8633;DHT22;4354;49.832;10.746;2023-06-14T09:45:40;38.10;1.00
8633;DHT22;4354;49.832;10.746;2023-06-14T09:48:07;38.40;1.00
8633;DHT22;4354;49.832;10.746;2023-06-14T09:50:35;38.60;1.00
8633;DHT22;4354;49.832;10.746;2023-06-14T09:53:06;39.30;1.00
8633;DHT22;4354;49.832;10.746;2023-06-14T09:55:36;39.70;1.00
8633;DHT22;4354;49.832;10.746;2023-06-14T09:58:05;40.00;1.00
8633;DHT22;4354;49.832;10.746;2023-06-14T10:00:34;38.60;1.00
8633;DHT22;4354;49.832;10.746;2023-06-14T10:03:16;37.60;1.00
8633;DHT22;4354;49.832;10.746;2023-06-14T10:05:49;36.90;1.00
8633;DHT22;4354;49.832;10.746;2023-06-14T10:08:19;37.60;1.00
8633;DHT22;4354;49.832;10.746;2023-06-14T10:10:46;37.40;1.00
8633;DHT22;4354;49.832;10.746;2023-06-14T10:13:14;36.10;1.00
8633;DHT22;4354;49.832;10.746;2023-06-14T10:15:57;34.10;1.00
8633;DHT22;4354;49.832;10.746;2023-06-14T10:18:39;33.30;1.00
8633;DHT22;4354;49.832;10.746;2023-06-14T10:23:53;32.30;1.00
8633;DHT22;4354;49.832;10.746;2023-06-14T10:26:23;31.10;1.00
8633;DHT22;4354;49.832;10.746;2023-06-14T10:31:58;28.50;1.00
8633;DHT22;4354;49.832;10.746;2023-06-14T10:34:27;29.90;1.00
8633;DHT22;4354;49.832;10.746;2023-06-14T10:37:20;32.20;1.00
8633;DHT22;4354;49.832;10.746;2023-06-14T10:39:47;34.50;1.00
8633;DHT22;4354;49.832;10.746;2023-06-14T10:42:15;35.70;1.00
8633;DHT22;4354;49.832;10.746;2023-06-14T10:44:46;37.00;1.00
8633;DHT22;4354;49.832;10.746;2023-06-14T10:47:34;37.70;1.00
8633;DHT22;4354;49.832;10.746;2023-06-14T10:50:05;38.20;1.00
8633;DHT22;4354;49.832;10.746;2023-06-14T10:52:36;38.80;1.00
8633;DHT22;4354;49.832;10.746;2023-06-14T10:57:40;36.00;1.00
8633;DHT22;4354;49.832;10.746;2023-06-14T11:00:11;33.70;1.00
8633;DHT22;4354;49.832;10.746;2023-06-14T11:05:26;34.50;1.00
8633;DHT22;4354;49.832;10.746;2023-06-14T11:11:06;33.50;1.00
8633;DHT22;4354;49.832;10.746;2023-06-14T11:13:34;32.70;1.00
8633;DHT22;4354;49.832;10.746;2023-06-14T11:16:01;31.50;1.00
8633;DHT22;4354;49.832;10.746;2023-06-14T11:18:28;30.50;1.00
8633;DHT22;4354;49.832;10.746;2023-06-14T11:20:55;29.40;1.00
8633;DHT22;4354;49.832;10.746;2023-06-14T11:23:22;28.90;1.00
8633;DHT22;4354;49.832;10.746;2023-06-14T11:25:53;28.70;1.00
8633;DHT22;4354;49.832;10.746;2023-06-14T11:28:19;28.50;1.00
8633;DHT22;4354;49.832;10.746;2023-06-14T11:31:01;28.30;1.00
8633;DHT22;4354;49.832;10.746;2023-06-14T11:33:28;28.70;1.00
8633;DHT22;4354;49.832;10.746;2023-06-14T11:35:54;29.40;1.00
8633;DHT22;4354;49.832;10.746;2023-06-14T11:38:21;30.70;1.00
8633;DHT22;4354;49.832;10.746;2023-06-14T11:40:48;31.40;1.00
8633;DHT22;4354;49.832;10.746;2023-06-14T11:43:15;30.90;1.00
8633;DHT22;4354;49.832;10.746;2023-06-14T11:45:43;29.80;1.00
8633;DHT22;4354;49.832;10.746;2023-06-14T11:48:40;29.50;1.00
8633;DHT22;4354;49.832;10.746;2023-06-14T11:51:07;29.60;1.00
8633;DHT22;4354;49.832;10.746;2023-06-14T11:53:34;30.10;1.00
8633;DHT22;4354;49.832;10.746;2023-06-14T11:56:01;30.70;1.00
8633;DHT22;4354;49.832;10.746;2023-06-14T11:58:29;31.10;1.00
8633;DHT22;4354;49.832;10.746;2023-06-14T12:00:56;31.10;1.00
8633;DHT22;4354;49.832;10.746;2023-06-14T12:03:26;30.80;1.00
8633;DHT22;4354;49.832;10.746;2023-06-14T12:06:07;30.10;1.00
8633;DHT22;4354;49.832;10.746;2023-06-14T12:08:36;28.80;1.00
8633;DHT22;4354;49.832;10.746;2023-06-14T12:11:13;27.80;1.00
8633;DHT22;4354;49.832;10.746;2023-06-14T12:13:43;27.20;1.00
8633;DHT22;4354;49.832;10.746;2023-06-14T12:16:11;26.80;1.00
8633;DHT22;4354;49.832;10.746;2023-06-14T12:18:40;26.60;1.00
8633;DHT22;4354;49.832;10.746;2023-06-14T12:21:08;26.60;1.00
8633;DHT22;4354;49.832;10.746;2023-06-14T12:26:15;26.40;1.00
8633;DHT22;4354;49.832;10.746;2023-06-14T12:28:44;26.50;1.00
8633;DHT22;4354;49.832;10.746;2023-06-14T12:31:12;26.70;1.00
8633;DHT22;4354;49.832;10.746;2023-06-14T12:33:40;27.50;1.00
8633;DHT22;4354;49.832;10.746;2023-06-14T12:36:09;28.00;1.00
8633;DHT22;4354;49.832;10.746;2023-06-14T12:38:37;28.40;1.00
8633;DHT22;4354;49.832;10.746;2023-06-14T12:41:04;29.10;1.00
8633;DHT22;4354;49.832;10.746;2023-06-14T12:43:31;29.50;1.00
8633;DHT22;4354;49.832;10.746;2023-06-14T12:45:59;29.30;1.00
8633;DHT22;4354;49.832;10.746;2023-06-14T12:48:26;28.90;1.00
8633;DHT22;4354;49.832;10.746;2023-06-14T12:50:54;28.50;1.00
8633;DHT22;4354;49.832;10.746;2023-06-14T12:53:20;28.10;1.00
8633;DHT22;4354;49.832;10.746;2023-06-14T12:55:47;27.50;1.00
8633;DHT22;4354;49.832;10.746;2023-06-14T12:58:14;27.10;1.00
8633;DHT22;4354;49.832;10.746;2023-06-14T13:00:43;26.70;1.00
8633;DHT22;4354;49.832;10.746;2023-06-14T13:03:10;26.40;1.00
8633;DHT22;4354;49.832;10.746;2023-06-14T13:05:37;26.40;1.00
8633;DHT22;4354;49.832;10.746;2023-06-14T13:08:07;26.40;1.00
8633;DHT22;4354;49.832;10.746;2023-06-14T13:10:37;26.60;1.00
8633;DHT22;4354;49.832;10.746;2023-06-14T13:13:04;26.70;1.00
8633;DHT22;4354;49.832;10.746;2023-06-14T13:15:31;27.10;1.00
8633;DHT22;4354;49.832;10.746;2023-06-14T13:17:58;27.30;1.00
8633;DHT22;4354;49.832;10.746;2023-06-14T13:20:25;27.50;1.00
8633;DHT22;4354;49.832;10.746;2023-06-14T13:22:52;27.20;1.00
8633;DHT22;4354;49.832;10.746;2023-06-14T13:25:19;27.10;1.00
8633;DHT22;4354;49.832;10.746;2023-06-14T13:27:46;26.70;1.00
8633;DHT22;4354;49.832;10.746;2023-06-14T13:30:13;26.70;1.00
8633;DHT22;4354;49.832;10.746;2023-06-14T13:32:41;26.50;1.00
8633;DHT22;4354;49.832;10.746;2023-06-14T13:35:07;26.30;1.00
8633;DHT22;4354;49.832;10.746;2023-06-14T13:37:34;26.20;1.00
8633;DHT22;4354;49.832;10.746;2023-06-14T13:40:01;26.20;1.00
8633;DHT22;4354;49.832;10.746;2023-06-14T13:42:28;26.10;1.00
8633;DHT22;4354;49.832;10.746;2023-06-14T13:44:58;26.00;1.00
8633;DHT22;4354;49.832;10.746;2023-06-14T13:47:25;26.30;1.00
8633;DHT22;4354;49.832;10.746;2023-06-14T13:49:52;26.70;1.00
8633;DHT22;4354;49.832;10.746;2023-06-14T13:52:19;27.20;1.00
8633;DHT22;4354;49.832;10.746;2023-06-14T13:54:46;27.60;1.00
8633;DHT22;4354;49.832;10.746;2023-06-14T13:57:15;27.90;1.00
8633;DHT22;4354;49.832;10.746;2023-06-14T13:59:43;28.20;1.00
8633;DHT22;4354;49.832;10.746;2023-06-14T14:02:13;28.40;1.00
8633;DHT22;4354;49.832;10.746;2023-06-14T14:04:40;28.10;1.00
8633;DHT22;4354;49.832;10.746;2023-06-14T14:07:08;28.10;1.00
8633;DHT22;4354;49.832;10.746;2023-06-14T14:09:35;28.30;1.00
8633;DHT22;4354;49.832;10.746;2023-06-14T14:12:02;28.50;1.00
8633;DHT22;4354;49.832;10.746;2023-06-14T14:14:31;28.80;1.00
8633;DHT22;4354;49.832;10.746;2023-06-14T14:16:58;29.20;1.00
8633;DHT22;4354;49.832;10.746;2023-06-14T14:19:25;29.30;1.00
8633;DHT22;4354;49.832;10.746;2023-06-14T14:21:52;29.40;1.00
8633;DHT22;4354;49.832;10.746;2023-06-14T14:24:20;28.80;1.00
8633;DHT22;4354;49.832;10.746;2023-06-14T14:26:47;28.10;1.00
8633;DHT22;4354;49.832;10.746;2023-06-14T14:29:15;27.60;1.00
8633;DHT22;4354;49.832;10.746;2023-06-14T14:31:43;27.00;1.00
8633;DHT22;4354;49.832;10.746;2023-06-14T14:34:10;26.50;1.00
8633;DHT22;4354;49.832;10.746;2023-06-14T14:36:37;26.20;1.00
8633;DHT22;4354;49.832;10.746;2023-06-14T14:39:04;26.00;1.00
8633;DHT22;4354;49.832;10.746;2023-06-14T14:41:31;25.80;1.00
8633;DHT22;4354;49.832;10.746;2023-06-14T14:43:58;25.60;1.00
8633;DHT22;4354;49.832;10.746;2023-06-14T14:46:27;25.40;1.00
8633;DHT22;4354;49.832;10.746;2023-06-14T14:48:54;25.20;1.00
8633;DHT22;4354;49.832;10.746;2023-06-14T14:51:21;25.00;1.00
8633;DHT22;4354;49.832;10.746;2023-06-14T14:53:48;24.80;1.00
8633;DHT22;4354;49.832;10.746;2023-06-14T14:56:15;24.60;1.00
8633;DHT22;4354;49.832;10.746;2023-06-14T14:58:42;24.50;1.00
8633;DHT22;4354;49.832;10.746;2023-06-14T15:01:09;24.60;1.00
8633;DHT22;4354;49.832;10.746;2023-06-14T15:03:35;24.90;1.00
8633;DHT22;4354;49.832;10.746;2023-06-14T15:06:22;25.20;1.00
8633;DHT22;4354;49.832;10.746;2023-06-14T15:08:49;25.60;1.00
8633;DHT22;4354;49.832;10.746;2023-06-14T15:11:17;25.90;1.00
8633;DHT22;4354;49.832;10.746;2023-06-14T15:13:44;26.20;1.00
8633;DHT22;4354;49.832;10.746;2023-06-14T15:16:11;26.50;1.00
8633;DHT22;4354;49.832;10.746;2023-06-14T15:18:38;26.70;1.00
8633;DHT22;4354;49.832;10.746;2023-06-14T15:21:04;26.70;1.00
8633;DHT22;4354;49.832;10.746;2023-06-14T15:23:31;26.30;1.00
8633;DHT22;4354;49.832;10.746;2023-06-14T15:25:59;26.10;1.00
8633;DHT22;4354;49.832;10.746;2023-06-14T15:28:26;25.70;1.00
8633;DHT22;4354;49.832;10.746;2023-06-14T15:30:55;25.50;1.00
8633;DHT22;4354;49.832;10.746;2023-06-14T15:33:23;25.20;1.00
8633;DHT22;4354;49.832;10.746;2023-06-14T15:35:51;25.00;1.00
8633;DHT22;4354;49.832;10.746;2023-06-14T15:38:20;24.70;1.00
8633;DHT22;4354;49.832;10.746;2023-06-14T15:40:48;24.60;1.00
8633;DHT22;4354;49.832;10.746;2023-06-14T15:43:17;24.40;1.00
8633;DHT22;4354;49.832;10.746;2023-06-14T15:45:44;24.30;1.00
8633;DHT22;4354;49.832;10.746;2023-06-14T15:48:11;24.00;1.00
8633;DHT22;4354;49.832;10.746;2023-06-14T15:50:38;23.80;1.00
8633;DHT22;4354;49.832;10.746;2023-06-14T15:53:05;23.70;1.00
8633;DHT22;4354;49.832;10.746;2023-06-14T15:55:32;23.70;1.00
8633;DHT22;4354;49.832;10.746;2023-06-14T15:57:59;23.70;1.00
8633;DHT22;4354;49.832;10.746;2023-06-14T16:00:26;23.60;1.00
8633;DHT22;4354;49.832;10.746;2023-06-14T16:02:53;23.60;1.00
8633;DHT22;4354;49.832;10.746;2023-06-14T16:05:21;23.70;1.00
8633;DHT22;4354;49.832;10.746;2023-06-14T16:07:47;23.80;1.00
8633;DHT22;4354;49.832;10.746;2023-06-14T16:10:14;23.90;1.00
8633;DHT22;4354;49.832;10.746;2023-06-14T16:12:42;24.10;1.00
8633;DHT22;4354;49.832;10.746;2023-06-14T16:15:09;24.40;1.00
8633;DHT22;4354;49.832;10.746;2023-06-14T16:17:35;24.60;1.00
8633;DHT22;4354;49.832;10.746;2023-06-14T16:20:03;25.00;1.00
8633;DHT22;4354;49.832;10.746;2023-06-14T16:22:29;25.20;1.00
8633;DHT22;4354;49.832;10.746;2023-06-14T16:24:56;25.40;1.00
8633;DHT22;4354;49.832;10.746;2023-06-14T16:27:23;25.50;1.00